Northwood, ND (58267)

3:48 PM CDT on October 24, 2014 (GMT -0500)
Grand Forks Air Force Base | Change Station
CLOSE
Current Station
Airport
Location: Grand Forks AFB,
Elevation: 912 ft
Nearby Weather Stations

Elev 912 ft 47.96 °N, 97.40 °W | Updated 50 minutes ago

Clear
Clear
72 °F
Feels Like 72 °F
N
22
Wind Variable Wind from West
Gusts 28 mph

Today
High -- | Low -- °F
--% Chance of Precip.
Yesterday
High -- | Low -- °F
Precip. -- in
8:02 AM 6:25 PM
New Moon, 1% visible
Pressure 29.75 in
Visibility 10.0 miles
Clouds Clear
Dew Point 40 °F
Humidity 31%
Rainfall 0.00 in
Snow Depth Not available.
UV 2 out of 12
Pollen 2.00 out of 12
Air Quality Not available.
Flu Activity Local Activity
METAR KRDR 241958Z AUTO 27019G24KT 10SM CLR 22/04 A2973 RMK AO2 PK WND 29026/32 SLP072 T02240044

More Conditions Fewer Conditions

Pressure 29.75 in
Visibility 10.0 miles
Clouds Clear
Dew Point 40 °F
Humidity 31%
Rainfall 0.00 in
Snow Depth Not available.
UV 2 out of 12
Pollen 2.00 out of 12
Air Quality Not available.
Flu Activity Local Activity
METAR KRDR 241958Z AUTO 27019G24KT 10SM CLR 22/04 A2973 RMK AO2 PK WND 29026/32 SLP072 T02240044

More Conditions Fewer Conditions

10-Day Weather Forecast

Almanac

Astronomy

Oct. 24, 2014 Rise Set
Actual Time 8:02 AM CDT 6:25 PM CDT
Civil Twilight 7:30 AM CDT 6:57 PM CDT
Nautical Twilight 6:54 AM CDT 7:33 PM CDT
Astronomical Twilight 6:19 AM CDT 8:08 PM CDT
Moon 8:45 AM CDT 7:02 PM CDT
Length of Visible Light 11h 26m
Length of Day
10h 22m
Tomorrow will be 3m 12s shorter.
New Moon, 1% of the Moon is Illuminated
Today
New Moon
Oct 30
First Quarter
Nov 6
Full
Nov 14
Last Quarter
Nov 22
New

Today's Extremes

State Highs State Lows

Community

WunderPhotos

Upload Photos

1,764,654 photos uploaded!

Nearby

Snow Depth

Station Depth Elevation
No new snow has been reported.

Earthquake Activity

City Distance Mag. Time & Date
No recent earthquake activity has been reported nearby.
Minimum magnitude displayed is 2.5.

Coastal Water Temperatures

Place Temperature
No Stations Reporting

Nearby Weather Stations